Terminal Aerodrome Forecast
Issued by NWS Cleveland, OH

Home | Current Version | Previous Version | Graphics & Text | Print | Product List | Glossary Off
Versions: 1 2 3 4 5 6 7 8 9 10 11 12 13 14 15 16 17 18 19 20 21

000
FTUS41 KCLE 212340
TAFTOL
TAF
KTOL 212340Z 2200/2224 26015G25KT P6SM SCT045
     FM220200 25010KT P6SM BKN040
     FM220900 26010KT P6SM SCT030
     FM221400 26012G20KT P6SM SCT040=

USA.gov is the U.S. government's official web portal to all federal, state and local government web resources and services.